createdAt,value
2023-02-11T01:02:03.742Z,20.10
2023-02-11T01:02:35.980Z,19.95
2023-02-11T01:03:08.881Z,20.92
2023-02-11T01:03:43.905Z,21.27
2023-02-11T01:04:16.326Z,20.83
2023-02-11T01:04:48.576Z,20.45
2023-02-11T01:05:24.303Z,20.48
2023-02-11T01:05:56.562Z,20.52
2023-02-11T01:06:28.648Z,21.30
2023-02-11T01:07:03.314Z,20.75
2023-02-11T01:07:35.876Z,20.98
2023-02-11T01:08:08.083Z,20.70
2023-02-11T01:08:42.929Z,20.35
2023-02-11T01:09:15.146Z,20.42
2023-02-11T01:09:47.266Z,20.42
2023-02-11T01:10:22.019Z,20.77
2023-02-11T01:10:55.833Z,30.77
2023-02-11T01:11:27.923Z,21.70
2023-02-11T01:12:05.537Z,21.88
2023-02-11T01:12:37.909Z,20.40
2023-02-11T01:13:10.236Z,20.60
2023-02-11T01:13:45.618Z,20.42
2023-02-11T01:14:17.770Z,21.27
2023-02-11T01:14:50.021Z,22.15
2023-02-11T01:15:27.592Z,22.38
2023-02-11T01:16:00.838Z,22.10
2023-02-11T01:16:33.074Z,21.33
2023-02-11T01:17:10.463Z,22.00
2023-02-11T01:17:42.586Z,21.08
2023-02-11T01:18:14.673Z,21.23
2023-02-11T01:18:49.753Z,20.38
2023-02-11T01:19:22.990Z,21.00
2023-02-11T01:19:57.788Z,21.17
2023-02-11T01:20:29.927Z,21.35
2023-02-11T01:21:02.221Z,20.30
2023-02-11T01:21:34.302Z,21.45
2023-02-11T01:22:08.992Z,21.90
2023-02-11T01:22:41.137Z,20.85
2023-02-11T01:23:13.522Z,22.02
2023-02-11T01:23:48.449Z,22.98
2023-02-11T01:24:20.545Z,20.85
2023-02-11T01:24:52.681Z,21.33
2023-02-11T01:25:24.817Z,22.85
2023-02-11T01:26:00.132Z,21.88
2023-02-11T01:26:34.244Z,21.67
2023-02-11T01:27:06.403Z,19.92
2023-02-11T01:27:41.847Z,21.95
2023-02-11T01:28:17.680Z,21.23
2023-02-11T01:28:49.833Z,22.63
2023-02-11T01:29:24.917Z,23.40
2023-02-11T01:29:59.895Z,21.38
2023-02-11T01:30:32.269Z,22.63
2023-02-11T01:31:07.615Z,21.55
2023-02-11T01:31:39.745Z,21.30
2023-02-11T01:32:14.492Z,23.63
2023-02-11T01:32:49.199Z,18.15
2023-02-11T01:33:22.246Z,21.00
2023-02-11T01:33:56.890Z,20.98
2023-02-11T01:34:29.147Z,22.17
2023-02-11T01:35:01.428Z,22.33
2023-02-11T01:35:33.547Z,20.73
2023-02-11T01:36:09.704Z,21.58
2023-02-11T01:36:42.233Z,21.05
2023-02-11T01:37:16.889Z,20.42
2023-02-11T01:37:49.005Z,21.55
2023-02-11T01:38:24.039Z,24.17
2023-02-11T01:39:00.680Z,20.50
2023-02-11T01:39:34.004Z,21.90
2023-02-11T01:40:09.043Z,21.73
2023-02-11T01:40:43.709Z,21.90
2023-02-11T01:41:16.615Z,23.05
2023-02-11T01:41:49.225Z,20.92
2023-02-11T01:42:26.590Z,21.42
2023-02-11T01:42:58.713Z,21.38
2023-02-11T01:43:36.018Z,22.38
2023-02-11T01:44:33.150Z,20.27
2023-02-11T01:45:35.162Z,19.23
2023-02-11T01:46:35.965Z,19.95
2023-02-11T01:47:44.827Z,21.00
2023-02-11T01:48:21.345Z,19.08
2023-02-11T01:48:58.850Z,20.30
2023-02-11T01:49:33.056Z,19.77
2023-02-11T01:50:05.569Z,20.38
2023-02-11T01:50:40.325Z,22.88
2023-02-11T01:51:19.703Z,21.45
2023-02-11T01:51:56.886Z,21.67
2023-02-11T01:52:33.020Z,21.27
2023-02-11T01:53:20.045Z,22.33
2023-02-11T01:54:08.460Z,21.38
2023-02-11T01:54:59.422Z,22.80
2023-02-11T01:55:58.608Z,20.08
2023-02-11T01:56:46.650Z,21.73
2023-02-11T01:57:27.554Z,20.70
2023-02-11T01:58:04.448Z,21.63
2023-02-11T01:58:41.782Z,21.40
2023-02-11T01:59:21.248Z,19.95
2023-02-11T02:00:01.729Z,21.02
2023-02-11T02:00:49.352Z,21.15
2023-02-11T02:01:27.031Z,20.02
2023-02-11T02:02:04.811Z,22.42
2023-02-11T02:02:47.003Z,21.77
2023-02-11T02:03:22.783Z,21.38
2023-02-11T02:04:00.540Z,21.88
2023-02-11T02:04:42.940Z,18.70
2023-02-11T02:05:22.484Z,21.52
2023-02-11T02:06:00.075Z,22.55
2023-02-11T02:06:41.126Z,22.20
2023-02-11T02:07:20.357Z,21.98
2023-02-11T02:08:03.066Z,21.48
2023-02-11T02:08:39.276Z,22.02
2023-02-11T02:09:17.825Z,20.50
2023-02-11T02:09:58.868Z,22.30
2023-02-11T02:10:32.031Z,21.42
2023-02-11T02:11:05.158Z,22.08
2023-02-11T02:11:40.540Z,21.17
2023-02-11T02:12:12.693Z,22.23
2023-02-11T02:12:45.040Z,22.98
2023-02-11T02:13:20.510Z,21.88
2023-02-11T02:13:53.045Z,20.98
2023-02-11T02:14:26.742Z,21.58
2023-02-11T02:15:37.261Z,21.40
2023-02-11T02:16:13.964Z,19.52
2023-02-11T02:16:46.517Z,19.58
2023-02-11T02:17:41.247Z,19.60
2023-02-11T02:18:27.521Z,20.20
2023-02-11T02:19:36.144Z,19.35
2023-02-11T02:20:31.684Z,22.05
2023-02-11T02:21:50.067Z,19.02
2023-02-11T02:22:53.695Z,19.02
2023-02-11T02:23:36.636Z,19.33
2023-02-11T02:24:51.338Z,19.83
2023-02-11T02:25:51.337Z,20.02
2023-02-11T02:26:42.673Z,18.05
2023-02-11T02:27:41.809Z,19.00
2023-02-11T02:28:36.780Z,18.63
2023-02-11T02:29:43.493Z,20.08
2023-02-11T02:30:44.723Z,19.42
2023-02-11T02:31:52.819Z,21.05
2023-02-11T02:32:43.705Z,21.02
2023-02-11T02:33:29.895Z,21.88
2023-02-11T02:34:09.383Z,20.05
2023-02-11T02:34:49.372Z,18.55
2023-02-11T02:35:33.581Z,20.60
2023-02-11T02:36:18.750Z,20.50
2023-02-11T02:36:59.397Z,20.50
2023-02-11T02:37:37.187Z,21.83
2023-02-11T02:38:19.221Z,19.83
2023-02-11T02:38:56.636Z,21.13
2023-02-11T02:39:36.966Z,23.30
2023-02-11T02:40:20.513Z,21.95
2023-02-11T02:40:59.258Z,22.30
2023-02-11T02:41:33.824Z,23.38
2023-02-11T02:42:08.815Z,24.08
2023-02-11T02:42:44.640Z,20.00
2023-02-11T02:43:28.676Z,21.63
2023-02-11T02:44:01.257Z,21.85
2023-02-11T02:44:34.087Z,22.33
2023-02-11T02:45:12.039Z,21.67
2023-02-11T02:45:44.172Z,22.42
2023-02-11T02:46:18.837Z,22.10
2023-02-11T02:46:53.807Z,22.05
2023-02-11T02:47:26.020Z,21.08
2023-02-11T02:48:00.862Z,22.17
2023-02-11T02:48:36.569Z,22.33
2023-02-11T02:49:13.955Z,22.92
2023-02-11T02:49:46.119Z,22.35
2023-02-11T02:50:30.338Z,21.50
2023-02-11T02:51:14.856Z,22.08
2023-02-11T02:52:06.600Z,21.88
2023-02-11T02:52:46.990Z,21.30
2023-02-11T02:54:10.718Z,20.90
2023-02-11T02:55:20.688Z,21.27
2023-02-11T02:56:06.965Z,21.10
2023-02-11T02:56:48.347Z,20.08
2023-02-11T02:57:31.018Z,21.48
2023-02-11T02:58:44.304Z,22.88
2023-02-11T02:59:34.079Z,21.20
2023-02-11T03:00:20.661Z,22.52
2023-02-11T03:00:59.466Z,22.27
2023-02-11T03:01:42.533Z,22.08
2023-02-11T03:02:27.648Z,23.52
2023-02-11T03:03:15.931Z,21.10
2023-02-11T03:03:57.496Z,22.85
2023-02-11T03:04:37.535Z,22.45
2023-02-11T03:05:16.409Z,20.88
2023-02-11T03:05:56.588Z,21.85
2023-02-11T03:06:34.436Z,22.45
2023-02-11T03:07:15.533Z,21.23
2023-02-11T03:07:58.846Z,23.48
2023-02-11T03:08:34.851Z,22.38
2023-02-11T03:09:13.846Z,24.48
2023-02-11T03:09:51.512Z,23.40
2023-02-11T03:10:29.054Z,22.67
2023-02-11T03:11:06.145Z,22.00
2023-02-11T03:11:39.064Z,23.20
2023-02-11T03:12:13.565Z,22.00
2023-02-11T03:12:47.860Z,23.13
2023-02-11T03:13:27.864Z,22.48
2023-02-11T03:14:03.660Z,22.02
2023-02-11T03:14:36.370Z,24.20
2023-02-11T03:15:14.043Z,22.88
2023-02-11T03:15:49.197Z,22.90
2023-02-11T03:16:25.734Z,22.10
2023-02-11T03:17:02.866Z,24.15
2023-02-11T03:17:37.229Z,23.50
2023-02-11T03:18:15.868Z,22.75
2023-02-11T03:18:53.556Z,21.65
2023-02-11T03:19:33.511Z,21.92
2023-02-11T03:20:07.561Z,22.48
2023-02-11T03:20:45.127Z,22.52
2023-02-11T03:21:18.640Z,21.90
2023-02-11T03:21:53.701Z,20.17
2023-02-11T03:22:33.401Z,22.08
2023-02-11T03:23:12.917Z,21.35
2023-02-11T03:23:50.246Z,21.60
2023-02-11T03:24:31.100Z,20.55
2023-02-11T03:25:03.898Z,22.92
2023-02-11T03:25:53.347Z,21.35
2023-02-11T03:26:30.497Z,20.05
2023-02-11T03:27:13.550Z,23.15
2023-02-11T03:27:49.822Z,25.95
2023-02-11T03:28:30.088Z,25.90
2023-02-11T03:29:12.491Z,24.83
2023-02-11T03:29:51.747Z,25.35
2023-02-11T03:30:31.354Z,23.23
2023-02-11T03:31:12.488Z,21.83
2023-02-11T03:31:53.255Z,22.60
2023-02-11T03:32:31.781Z,20.27
2023-02-11T03:33:09.235Z,17.98
2023-02-11T03:33:55.965Z,23.30
2023-02-11T03:34:36.149Z,23.00
2023-02-11T03:35:17.681Z,21.20
2023-02-11T03:35:57.069Z,22.02
2023-02-11T03:36:38.576Z,20.90
2023-02-11T03:37:15.597Z,20.35
2023-02-11T03:37:52.097Z,20.13
2023-02-11T03:38:32.581Z,21.08
2023-02-11T03:39:41.265Z,21.98
2023-02-11T03:40:20.034Z,22.25
2023-02-11T03:40:55.519Z,20.42
2023-02-11T03:41:28.765Z,19.90
2023-02-11T03:42:03.035Z,20.90
2023-02-11T03:42:42.506Z,20.63
2023-02-11T03:43:18.940Z,20.88
2023-02-11T03:43:55.524Z,23.15
2023-02-11T03:44:35.991Z,21.80
2023-02-11T03:45:41.712Z,20.02
2023-02-11T03:46:21.058Z,21.30
2023-02-11T03:46:54.744Z,21.00
2023-02-11T03:47:30.249Z,20.48
2023-02-11T03:48:08.921Z,20.90
2023-02-11T03:48:49.547Z,21.10
2023-02-11T03:49:27.810Z,22.60
2023-02-11T03:50:02.986Z,21.70
2023-02-11T03:50:37.503Z,22.42
2023-02-11T03:51:15.089Z,22.90
2023-02-11T03:51:49.744Z,21.52
2023-02-11T03:52:24.634Z,20.17
2023-02-11T03:53:02.939Z,23.20
2023-02-11T03:53:36.713Z,22.13
2023-02-11T03:54:16.872Z,22.45
2023-02-11T03:54:57.228Z,21.27
2023-02-11T03:56:10.553Z,20.65
2023-02-11T03:57:18.169Z,20.10
2023-02-11T03:57:52.829Z,20.08
2023-02-11T03:58:25.162Z,20.27
2023-02-11T03:58:57.571Z,19.85
2023-02-11T03:59:32.446Z,21.33
2023-02-11T04:00:05.897Z,21.42
2023-02-11T04:00:44.889Z,21.20
2023-02-11T04:01:19.707Z,21.25
2023-02-11T04:01:52.237Z,21.80
2023-02-11T04:02:28.063Z,21.33
2023-02-11T04:03:02.824Z,23.13
2023-02-11T04:03:35.044Z,24.50
2023-02-11T04:04:10.079Z,22.55
2023-02-11T04:04:47.405Z,20.50
2023-02-11T04:05:19.735Z,21.08
2023-02-11T04:05:54.460Z,19.20
2023-02-11T04:06:26.569Z,21.65
2023-02-11T04:06:58.788Z,22.67
2023-02-11T04:07:33.743Z,22.52
2023-02-11T04:08:06.673Z,21.42
2023-02-11T04:08:38.852Z,21.35
2023-02-11T04:09:13.938Z,22.63
2023-02-11T04:09:46.211Z,22.00
2023-02-11T04:10:21.434Z,22.25
2023-02-11T04:10:53.556Z,20.60
2023-02-11T04:11:25.845Z,21.52
2023-02-11T04:11:57.945Z,22.00
2023-02-11T04:12:32.700Z,22.95
2023-02-11T04:13:04.785Z,23.88
2023-02-11T04:13:36.851Z,20.83
2023-02-11T04:14:11.489Z,21.15
2023-02-11T04:14:43.560Z,21.60
2023-02-11T04:15:15.801Z,21.02
2023-02-11T04:15:50.828Z,20.83
2023-02-11T04:16:23.123Z,21.90
2023-02-11T04:16:55.367Z,21.45
2023-02-11T04:17:30.057Z,21.10
2023-02-11T04:18:04.632Z,21.60
2023-02-11T04:18:36.725Z,23.10
2023-02-11T04:19:13.943Z,23.23
2023-02-11T04:19:46.024Z,21.73
2023-02-11T04:20:18.387Z,21.38
2023-02-11T04:20:53.640Z,21.65
2023-02-11T04:21:25.850Z,21.90
2023-02-11T04:21:58.094Z,19.63
2023-02-11T04:22:32.816Z,20.85
2023-02-11T04:23:05.151Z,23.27
2023-02-11T04:23:37.420Z,21.13
2023-02-11T04:24:12.333Z,22.02
2023-02-11T04:24:46.973Z,18.85
2023-02-11T04:25:19.294Z,21.33
2023-02-11T04:25:51.843Z,19.63
2023-02-11T04:26:26.838Z,21.48
2023-02-11T04:26:59.056Z,19.48
2023-02-11T04:27:31.465Z,20.50
2023-02-11T04:28:03.646Z,21.40
2023-02-11T04:28:38.420Z,20.83
2023-02-11T04:29:10.673Z,20.90
2023-02-11T04:29:42.828Z,20.95
2023-02-11T04:30:17.493Z,20.58
2023-02-11T04:30:50.678Z,21.88
2023-02-11T04:31:23.031Z,22.42
2023-02-11T04:31:58.107Z,22.63
2023-02-11T04:32:30.290Z,24.73
2023-02-11T04:33:02.566Z,21.45
2023-02-11T04:33:37.211Z,23.42
2023-02-11T04:34:14.792Z,22.52
2023-02-11T04:34:47.731Z,21.52
2023-02-11T04:35:22.407Z,22.05
2023-02-11T04:35:54.857Z,20.25
2023-02-11T04:36:29.590Z,20.60
2023-02-11T04:37:02.170Z,20.63
2023-02-11T04:37:41.572Z,19.73
2023-02-11T04:38:19.515Z,20.30
2023-02-11T04:38:51.618Z,21.52
2023-02-11T04:39:23.739Z,20.73
2023-02-11T04:39:55.881Z,26.50
2023-02-11T04:40:30.606Z,21.05
2023-02-11T04:41:02.741Z,21.05
2023-02-11T04:41:34.868Z,19.20
2023-02-11T04:42:12.306Z,18.88
2023-02-11T04:42:44.456Z,19.42
2023-02-11T04:43:16.585Z,20.65
2023-02-11T04:43:51.239Z,19.42
2023-02-11T04:44:23.370Z,19.40
2023-02-11T04:44:55.584Z,19.58
2023-02-11T04:45:30.259Z,18.63
2023-02-11T04:46:02.411Z,19.40
2023-02-11T04:46:36.143Z,20.70
2023-02-11T04:47:12.784Z,18.35
2023-02-11T04:47:44.931Z,19.88
2023-02-11T04:48:17.000Z,19.83
2023-02-11T04:48:51.902Z,20.13
2023-02-11T04:49:26.661Z,21.27
2023-02-11T04:49:58.775Z,19.70
2023-02-11T04:50:33.979Z,20.33
2023-02-11T04:51:06.555Z,19.85
2023-02-11T04:51:38.765Z,18.98
2023-02-11T04:52:16.242Z,19.40
2023-02-11T04:52:48.386Z,20.45
2023-02-11T04:53:20.478Z,19.90
2023-02-11T04:53:55.179Z,21.83
2023-02-11T04:54:27.476Z,19.48
2023-02-11T04:54:59.650Z,20.75
2023-02-11T04:55:34.320Z,19.05
2023-02-11T04:56:07.104Z,20.20
2023-02-11T04:56:39.493Z,18.35
2023-02-11T04:57:14.280Z,19.23
2023-02-11T04:57:46.365Z,19.85
2023-02-11T04:58:19.194Z,19.00
2023-02-11T04:58:53.832Z,20.88
2023-02-11T04:59:25.956Z,22.40
2023-02-11T04:59:58.093Z,20.08
2023-02-11T05:00:32.867Z,23.75
2023-02-11T05:01:08.710Z,21.58
2023-02-11T05:01:41.405Z,18.35
2023-02-11T05:02:16.376Z,20.23
2023-02-11T05:02:48.683Z,18.42
2023-02-11T05:03:20.844Z,18.38
2023-02-11T05:03:55.520Z,20.27
2023-02-11T05:04:30.719Z,19.13
2023-02-11T05:05:03.107Z,19.42
2023-02-11T05:05:40.718Z,20.40
2023-02-11T05:06:13.438Z,19.38
2023-02-11T05:06:45.513Z,19.30
2023-02-11T05:07:20.260Z,18.80
2023-02-11T05:07:52.389Z,19.48
2023-02-11T05:08:24.569Z,19.23
2023-02-11T05:08:59.326Z,19.45
2023-02-11T05:09:31.560Z,21.75
2023-02-11T05:10:04.537Z,20.35
2023-02-11T05:10:42.834Z,18.15
2023-02-11T05:11:17.244Z,17.98
2023-02-11T05:11:50.038Z,19.83
2023-02-11T05:12:24.791Z,19.42
2023-02-11T05:12:56.875Z,22.73
2023-02-11T05:13:29.210Z,18.02
2023-02-11T05:14:03.946Z,18.75
2023-02-11T05:14:36.099Z,21.25
2023-02-11T05:15:08.573Z,18.48
2023-02-11T05:15:40.955Z,19.35
2023-02-11T05:16:16.068Z,19.00
2023-02-11T05:16:48.587Z,18.45
2023-02-11T05:17:20.711Z,20.70
2023-02-11T05:17:55.682Z,20.35
2023-02-11T05:18:27.883Z,20.23
2023-02-11T05:19:02.168Z,19.70
2023-02-11T05:19:39.609Z,20.25
2023-02-11T05:20:11.956Z,19.13
2023-02-11T05:20:44.322Z,21.58
2023-02-11T05:21:21.748Z,21.40
2023-02-11T05:22:02.559Z,20.50
2023-02-11T05:22:37.262Z,19.98
2023-02-11T05:23:12.221Z,19.92
2023-02-11T05:23:45.476Z,20.48
2023-02-11T05:24:17.564Z,20.95
2023-02-11T05:24:53.673Z,20.98
2023-02-11T05:25:25.861Z,19.15
2023-02-11T05:25:59.902Z,19.92
2023-02-11T05:26:35.063Z,20.88
2023-02-11T05:27:07.315Z,21.92
2023-02-11T05:27:39.462Z,24.20
2023-02-11T05:28:14.282Z,22.48
2023-02-11T05:28:46.460Z,19.40
2023-02-11T05:29:20.968Z,20.45
2023-02-11T05:29:55.793Z,21.27
2023-02-11T05:30:28.334Z,20.80
2023-02-11T05:31:00.699Z,21.60
2023-02-11T05:31:35.539Z,21.83
2023-02-11T05:32:09.127Z,20.60
2023-02-11T05:32:41.211Z,21.40
2023-02-11T05:33:16.030Z,23.30
2023-02-11T05:33:48.235Z,23.10
2023-02-11T05:34:20.384Z,21.30
2023-02-11T05:34:57.676Z,21.77
2023-02-11T05:35:29.745Z,20.27
2023-02-11T05:36:04.195Z,21.25
2023-02-11T05:36:39.137Z,26.45
2023-02-11T05:37:11.395Z,20.95
2023-02-11T05:37:43.778Z,21.50
2023-02-11T05:38:18.596Z,22.38
2023-02-11T05:38:51.076Z,21.13
2023-02-11T05:39:23.268Z,19.95
2023-02-11T05:39:55.367Z,23.73
2023-02-11T05:40:30.109Z,20.25
2023-02-11T05:41:03.048Z,19.45
2023-02-11T05:41:35.184Z,23.67
2023-02-11T05:42:10.056Z,20.23
2023-02-11T05:42:42.178Z,22.13
2023-02-11T05:43:14.247Z,22.40
2023-02-11T05:43:51.098Z,21.98
2023-02-11T05:44:23.189Z,21.70
2023-02-11T05:44:55.399Z,20.45
2023-02-11T05:45:30.377Z,20.90
2023-02-11T05:46:03.354Z,21.52
2023-02-11T05:46:37.976Z,22.17
2023-02-11T05:47:12.659Z,21.52
2023-02-11T05:47:44.870Z,20.73
2023-02-11T05:48:17.889Z,21.40
2023-02-11T05:48:52.884Z,20.88
2023-02-11T05:49:25.100Z,22.58
2023-02-11T05:49:59.844Z,21.23
2023-02-11T05:50:34.621Z,21.27
2023-02-11T05:51:06.732Z,43.70
2023-02-11T05:51:38.899Z,23.23
2023-02-11T05:52:13.549Z,23.52
2023-02-11T05:52:45.637Z,22.67
2023-02-11T05:53:18.127Z,22.92
2023-02-11T05:53:53.090Z,23.52
2023-02-11T05:54:28.181Z,23.00
2023-02-11T05:55:00.340Z,23.65
2023-02-11T05:55:35.029Z,22.83
2023-02-11T05:56:07.625Z,22.67
2023-02-11T05:56:39.740Z,21.00
2023-02-11T05:57:14.433Z,19.33
2023-02-11T05:57:46.920Z,21.17
2023-02-11T05:58:19.071Z,19.15
2023-02-11T05:58:53.876Z,19.85
2023-02-11T05:59:26.400Z,19.98
2023-02-11T05:59:58.482Z,18.52
2023-02-11T06:00:33.344Z,20.38
2023-02-11T06:01:05.560Z,20.88
2023-02-11T06:01:37.785Z,23.65
2023-02-11T06:02:13.333Z,21.88
2023-02-11T06:02:45.496Z,21.83
2023-02-11T06:03:17.657Z,21.48
2023-02-11T06:03:54.120Z,21.13
2023-02-11T06:04:27.200Z,20.73
2023-02-11T06:05:01.953Z,18.67
2023-02-11T06:05:36.778Z,20.33
2023-02-11T06:06:10.563Z,20.17
2023-02-11T06:06:45.581Z,19.15
2023-02-11T06:07:20.324Z,19.52
2023-02-11T06:07:52.574Z,22.10
2023-02-11T06:08:24.766Z,21.00
2023-02-11T06:08:56.961Z,21.38
2023-02-11T06:09:31.609Z,21.52
2023-02-11T06:10:04.426Z,20.23
2023-02-11T06:10:37.523Z,19.88
2023-02-11T06:11:12.357Z,20.00
2023-02-11T06:11:47.227Z,19.98
2023-02-11T06:12:22.176Z,22.70
2023-02-11T06:12:56.903Z,26.45
2023-02-11T06:13:28.979Z,26.10
2023-02-11T06:14:04.992Z,22.02
2023-02-11T06:14:39.978Z,23.80
2023-02-11T06:15:12.235Z,25.67
2023-02-11T06:15:44.565Z,22.52
2023-02-11T06:16:19.386Z,23.73
2023-02-11T06:16:56.206Z,21.13
2023-02-11T06:17:31.758Z,23.67
2023-02-11T06:18:07.105Z,21.77
2023-02-11T07:05:28.885Z,24.38
2023-02-11T07:06:01.180Z,22.75
2023-02-11T07:06:33.330Z,22.25
2023-02-11T07:07:11.026Z,22.88
2023-02-11T07:07:43.201Z,19.42
2023-02-11T07:08:20.395Z,19.98
2023-02-11T07:08:56.020Z,20.60
2023-02-11T07:09:31.364Z,19.88
2023-02-11T07:10:06.806Z,21.35
2023-02-11T07:10:39.061Z,19.63
2023-02-11T07:11:13.045Z,20.50
2023-02-11T07:11:47.906Z,20.17
2023-02-11T07:12:20.178Z,21.42
2023-02-11T07:12:52.278Z,21.08
2023-02-11T07:13:27.131Z,23.73
2023-02-11T07:14:02.046Z,21.67
2023-02-11T07:14:34.372Z,23.15
2023-02-11T07:15:09.665Z,20.42
2023-02-11T07:15:41.790Z,20.67
2023-02-11T07:16:17.576Z,19.73
2023-02-11T07:16:52.275Z,19.70
2023-02-11T07:17:24.538Z,19.25
2023-02-11T07:17:56.678Z,19.00
2023-02-11T07:18:31.438Z,20.42
2023-02-11T07:19:03.783Z,23.08
2023-02-11T07:19:36.041Z,21.92
2023-02-11T07:20:12.535Z,23.20
2023-02-11T07:20:47.393Z,23.95
2023-02-11T07:21:21.468Z,23.45
2023-02-11T07:21:56.166Z,22.92
2023-02-11T07:22:30.500Z,23.33
2023-02-11T07:23:02.750Z,19.90
2023-02-11T07:23:38.486Z,24.48
2023-02-11T07:24:11.579Z,20.50
2023-02-11T07:24:44.151Z,22.60
2023-02-11T07:25:19.100Z,23.35
2023-02-11T07:25:51.623Z,22.30
2023-02-11T07:26:25.948Z,25.20
2023-02-11T07:27:01.683Z,21.52
2023-02-11T07:27:33.884Z,22.88
2023-02-11T07:28:06.171Z,23.42
2023-02-11T07:28:44.980Z,21.58
2023-02-11T07:29:17.043Z,23.27
2023-02-11T07:29:49.115Z,22.58
2023-02-11T07:30:24.234Z,23.10
2023-02-11T07:30:56.420Z,21.73
2023-02-11T07:31:30.326Z,24.25
2023-02-11T07:32:05.225Z,24.27
2023-02-11T07:32:37.462Z,21.95
2023-02-11T07:33:09.593Z,23.42
2023-02-11T07:33:48.177Z,22.50
2023-02-11T07:34:20.429Z,22.08
2023-02-11T07:34:55.218Z,22.27
2023-02-11T07:35:27.443Z,19.92
2023-02-11T07:36:03.994Z,22.08
2023-02-11T07:36:39.506Z,24.20
2023-02-11T07:37:11.778Z,25.38
2023-02-11T07:37:44.229Z,22.63
2023-02-11T07:38:18.923Z,24.70
2023-02-11T07:38:51.064Z,23.20
2023-02-11T07:39:27.540Z,20.15
2023-02-11T07:40:02.539Z,22.92
2023-02-11T07:40:34.626Z,22.15
2023-02-11T07:41:09.511Z,23.15
2023-02-11T07:41:44.559Z,29.38
2023-02-11T07:42:16.966Z,22.50
2023-02-11T07:42:49.261Z,24.83
2023-02-11T07:43:26.072Z,24.42
2023-02-11T07:44:00.495Z,24.00
2023-02-11T07:44:33.749Z,23.98
2023-02-11T07:45:09.473Z,22.98
2023-02-11T07:45:41.809Z,24.05
2023-02-11T07:46:15.582Z,23.73
2023-02-11T07:46:50.359Z,23.42
2023-02-11T07:47:22.573Z,21.70
2023-02-11T07:47:54.794Z,24.77
2023-02-11T07:48:29.636Z,23.77
2023-02-11T07:49:01.973Z,25.50
2023-02-11T07:49:34.260Z,27.23
2023-02-11T07:50:09.688Z,25.05
2023-02-11T07:50:41.861Z,21.42
2023-02-11T07:51:21.388Z,26.80
2023-02-11T07:51:56.103Z,23.63
2023-02-11T07:52:30.068Z,24.60
2023-02-11T07:53:02.514Z,23.60
2023-02-11T07:53:37.569Z,26.23
2023-02-11T07:54:11.755Z,25.52
2023-02-11T07:54:44.045Z,29.13
2023-02-11T07:55:18.847Z,25.83
2023-02-11T07:59:31.669Z,23.98
2023-02-11T08:00:05.049Z,24.08
2023-02-11T08:00:46.167Z,51.47
2023-02-11T08:01:22.560Z,24.17
2023-02-11T08:01:57.360Z,24.83
2023-02-11T08:02:29.643Z,29.17
2023-02-11T08:03:01.974Z,23.20
2023-02-11T08:03:43.820Z,25.88
2023-02-11T08:04:15.938Z,25.77
2023-02-11T08:04:52.575Z,24.52
2023-02-11T08:05:24.778Z,23.33
2023-02-11T08:05:59.596Z,23.52
2023-02-11T08:06:38.066Z,22.70
2023-02-11T08:07:10.194Z,25.83
2023-02-11T08:07:44.886Z,24.63
2023-02-11T08:08:18.034Z,22.70
2023-02-11T08:08:52.891Z,23.80
2023-02-11T08:09:27.806Z,25.00
2023-02-11T08:10:01.818Z,23.52
2023-02-11T08:10:37.197Z,24.58
2023-02-11T08:11:15.232Z,25.75
2023-02-11T08:11:47.512Z,24.08
2023-02-11T08:12:22.239Z,22.98
2023-02-11T08:12:57.209Z,23.55
2023-02-11T08:13:29.287Z,22.55
2023-02-11T08:14:04.271Z,24.45
2023-02-11T08:14:36.638Z,24.85
2023-02-11T08:15:09.903Z,26.08
2023-02-11T08:15:44.583Z,25.45
2023-02-11T08:16:21.268Z,25.95
2023-02-11T08:16:59.817Z,25.92
2023-02-11T08:17:32.084Z,26.65
2023-02-11T08:18:04.363Z,25.27
2023-02-11T08:18:39.280Z,25.88
2023-02-11T08:19:16.408Z,23.60
2023-02-11T08:19:49.127Z,25.25
2023-02-11T08:20:24.085Z,25.70
2023-02-11T08:20:56.552Z,26.05
2023-02-11T08:21:29.222Z,27.08
2023-02-11T08:22:06.550Z,23.75
2023-02-11T08:22:38.621Z,25.85
2023-02-11T08:23:10.847Z,26.08
2023-02-11T08:23:47.289Z,25.38
2023-02-11T08:24:19.436Z,26.15
2023-02-11T08:24:54.171Z,25.40
2023-02-11T08:25:27.080Z,27.23
2023-02-11T08:26:02.053Z,27.60
2023-02-11T08:26:37.655Z,28.73
2023-02-11T08:27:09.866Z,24.77
2023-02-11T08:27:41.987Z,29.42
2023-02-11T08:28:16.932Z,28.67
2023-02-11T08:28:50.917Z,28.75
2023-02-11T08:29:23.257Z,29.60
2023-02-11T08:30:00.063Z,27.23
2023-02-11T08:30:32.482Z,28.30
2023-02-11T08:31:06.464Z,28.30
2023-02-11T08:31:43.703Z,31.92
2023-02-11T08:32:18.336Z,26.58
2023-02-11T08:32:50.461Z,27.52
2023-02-11T08:33:25.201Z,27.35
2023-02-11T08:33:58.374Z,27.90
2023-02-11T08:34:34.071Z,30.15
2023-02-11T08:35:08.033Z,27.10
2023-02-11T08:35:42.821Z,30.80
2023-02-11T08:36:16.737Z,28.75
2023-02-11T08:36:49.549Z,28.13
2023-02-11T08:37:26.994Z,27.73
2023-02-11T08:37:59.137Z,27.08
2023-02-11T08:38:31.318Z,27.08
2023-02-11T08:39:18.519Z,28.77
2023-02-11T08:39:52.058Z,30.67
2023-02-11T08:40:26.895Z,29.83
2023-02-11T08:41:00.464Z,28.05
2023-02-11T08:41:33.521Z,28.15
2023-02-11T08:42:08.318Z,28.20
2023-02-11T08:42:40.592Z,28.30
2023-02-11T08:43:12.682Z,28.70
2023-02-11T08:43:49.469Z,26.60
2023-02-11T08:44:22.848Z,30.75
2023-02-11T08:44:57.560Z,27.63
2023-02-11T08:45:29.758Z,26.45
2023-02-11T08:46:03.290Z,31.08
2023-02-11T08:46:38.316Z,28.58
2023-02-11T08:47:10.640Z,26.67
2023-02-11T08:47:42.777Z,28.67
2023-02-11T08:48:17.613Z,27.60
2023-02-11T08:48:49.952Z,28.10
2023-02-11T08:49:25.391Z,29.90
2023-02-11T08:49:57.635Z,28.23
2023-02-11T08:50:29.713Z,29.25
2023-02-11T08:51:10.255Z,32.55
2023-02-11T08:52:17.159Z,28.73
2023-02-11T08:52:52.553Z,26.98
2023-02-11T08:53:25.135Z,27.05
2023-02-11T08:54:00.719Z,28.98
2023-02-11T08:54:32.957Z,27.38
2023-02-11T08:55:08.406Z,28.77
2023-02-11T08:55:40.510Z,31.05
2023-02-11T08:56:13.908Z,30.38
2023-02-11T08:56:48.937Z,28.52
2023-02-11T08:57:21.021Z,32.08
2023-02-11T08:57:55.704Z,30.23
2023-02-11T08:58:27.960Z,26.73
2023-02-11T08:59:00.049Z,30.05
2023-02-11T08:59:34.913Z,29.80
2023-02-11T09:00:08.777Z,28.17
2023-02-11T09:00:45.318Z,28.30
2023-02-11T09:01:22.713Z,32.33
2023-02-11T09:01:58.157Z,28.23
2023-02-11T09:02:30.431Z,27.42
2023-02-11T09:03:02.657Z,32.40
2023-02-11T09:03:37.403Z,27.83
2023-02-11T09:04:10.849Z,30.58
2023-02-11T09:04:45.590Z,27.75
2023-02-11T09:05:18.093Z,29.02
2023-02-11T09:05:53.321Z,29.77
2023-02-11T09:06:29.672Z,30.02
2023-02-11T09:07:01.861Z,33.35
2023-02-11T09:07:36.573Z,29.30
2023-02-11T09:08:11.753Z,29.30
2023-02-11T09:08:46.552Z,28.17
2023-02-11T09:09:21.425Z,30.20
2023-02-11T09:09:53.747Z,29.83
2023-02-11T09:10:25.996Z,32.47
2023-02-11T09:11:00.835Z,24.50
2023-02-11T09:11:35.555Z,27.55
2023-02-11T09:12:10.474Z,26.55
2023-02-11T09:12:42.592Z,28.38
2023-02-11T09:13:14.863Z,29.98
2023-02-11T09:13:52.587Z,30.85
2023-02-11T09:14:26.062Z,26.73
2023-02-11T09:15:01.142Z,27.85
2023-02-11T09:15:33.699Z,29.02
2023-02-11T09:16:06.765Z,28.80
2023-02-11T09:16:41.777Z,29.08
2023-02-11T09:17:13.996Z,27.05
2023-02-11T09:17:46.148Z,30.65
2023-02-11T09:18:20.831Z,29.42
2023-02-11T09:18:53.556Z,28.27
2023-02-11T09:19:28.402Z,28.83
2023-02-11T09:20:00.721Z,32.92
2023-02-11T09:20:33.049Z,30.38
2023-02-11T09:21:10.014Z,28.83
2023-02-11T09:21:42.354Z,29.00
2023-02-11T09:22:17.132Z,30.25
2023-02-11T09:22:49.292Z,33.15
2023-02-11T09:23:24.057Z,29.35
2023-02-11T09:24:01.943Z,29.55
2023-02-11T09:24:34.037Z,30.17
2023-02-11T09:25:09.522Z,28.17
2023-02-11T09:25:41.986Z,30.45
2023-02-11T09:26:15.965Z,25.15
2023-02-11T09:26:50.828Z,29.83
2023-02-11T09:27:23.019Z,31.50
2023-02-11T09:27:55.207Z,29.90
2023-02-11T09:28:30.046Z,31.77
2023-02-11T09:29:03.688Z,29.58
2023-02-11T09:29:38.437Z,31.52
2023-02-11T09:30:12.106Z,31.50
2023-02-11T09:30:47.036Z,32.72
2023-02-11T09:31:21.295Z,33.10
2023-02-11T09:31:56.203Z,26.98
2023-02-11T09:32:28.433Z,29.77
2023-02-11T09:33:00.598Z,32.72
2023-02-11T09:33:35.469Z,33.28
2023-02-11T09:34:07.926Z,29.85
2023-02-11T09:34:42.674Z,32.28
2023-02-11T09:35:14.808Z,31.48
2023-02-11T09:35:46.966Z,29.80